Time;durP1;ratioP1;P1;durP2;ratioP2;P2;SDS_P1;SDS_P2;PMS_P1;PMS_P2;Temp;Humidity;BMP_temperature;BMP_pressure;BME280_temperature;BME280_humidity;BME280_pressure;Samples;Min_cycle;Max_cycle;Signal;HPM_P1;HPM_P2
2022/04/13 00:00:27;;;;;;;27.33;13.85;;;;;;;-149.78;100.00;50311.06;4898646;29;20044;-73
2022/04/13 00:02:53;;;;;;;32.55;14.02;;;;;;;-149.78;100.00;50328.69;4898523;29;20037;-72
2022/04/13 00:05:19;;;;;;;31.42;13.35;;;;;;;-149.78;100.00;50311.06;4882719;29;20047;-73
2022/04/13 00:07:45;;;;;;;26.15;12.65;;;;;;;-149.78;100.00;50322.81;4896914;29;20032;-73
2022/04/13 00:10:11;;;;;;;26.73;12.45;;;;;;;-149.78;100.00;50311.06;4898323;29;20045;-73
2022/04/13 00:12:37;;;;;;;27.67;12.85;;;;;;;-149.78;100.00;50275.88;4898310;29;20037;-73
2022/04/13 00:15:05;;;;;;;27.05;13.13;;;;;;;-149.78;100.00;50322.81;4896983;29;20036;-73
2022/04/13 00:17:31;;;;;;;22.45;11.75;;;;;;;-149.78;100.00;50313.03;4898122;29;20100;-73
2022/04/13 00:19:58;;;;;;;27.00;12.30;;;;;;;-149.78;100.00;50326.72;4897455;29;20135;-72
2022/04/13 00:22:24;;;;;;;23.10;11.77;;;;;;;-149.78;100.00;50293.47;4897577;29;20100;-73
2022/04/13 00:24:50;;;;;;;24.80;12.10;;;;;;;-149.78;100.00;50311.06;4899268;29;20044;-73
2022/04/13 00:27:16;;;;;;;24.83;12.15;;;;;;;-149.78;100.00;50314.97;4898139;29;20044;-73
2022/04/13 00:29:42;;;;;;;25.63;11.73;;;;;;;-149.78;100.00;50326.72;4899175;29;20044;-73
2022/04/13 00:32:08;;;;;;;26.75;11.52;;;;;;;-149.78;100.00;50330.63;4898167;29;20042;-72
2022/04/13 00:34:34;;;;;;;27.10;11.85;;;;;;;-149.78;100.00;50322.81;4898142;29;20163;-73
2022/04/13 00:37:00;;;;;;;22.73;11.45;;;;;;;-149.78;100.00;50313.03;4899187;29;20076;-73
2022/04/13 00:39:26;;;;;;;21.02;11.63;;;;;;;-149.78;100.00;50307.16;4898953;29;20044;-73
2022/04/13 00:42:00;;;;;;;26.42;11.35;;;;;;;-149.78;100.00;50305.22;4898804;29;20084;-73
2022/04/13 00:44:27;;;;;;;25.92;10.68;;;;;;;-149.78;100.00;50334.53;4898137;29;20420;-73
2022/04/13 00:46:56;;;;;;;25.30;12.18;;;;;;;-149.78;100.00;50330.63;4897737;29;20413;-73
2022/04/13 00:49:24;;;;;;;21.08;10.85;;;;;;;-149.78;100.00;50314.97;4898721;29;20045;-73
2022/04/13 00:51:50;;;;;;;21.83;10.88;;;;;;;-149.78;100.00;50303.25;4882451;29;20036;-73
2022/04/13 00:54:19;;;;;;;22.27;10.57;;;;;;;-149.78;100.00;50285.66;4898910;29;20401;-73
2022/04/13 00:56:49;;;;;;;21.08;10.23;;;;;;;-149.78;100.00;50268.03;4898710;29;20036;-73
2022/04/13 00:59:16;;;;;;;19.27;9.77;;;;;;;-149.78;100.00;50279.78;4898728;29;20051;-73
2022/04/13 01:01:47;;;;;;;22.30;9.88;;;;;;;-149.78;100.00;50299.34;4897463;29;20396;-73
2022/04/13 01:04:14;;;;;;;23.65;9.75;;;;;;;-149.78;100.00;50330.63;4898636;29;20033;-73
2022/04/13 01:06:41;;;;;;;18.77;9.68;;;;;;;-149.78;100.00;50338.44;4898422;29;20123;-73
2022/04/13 01:09:08;;;;;;;23.90;9.73;;;;;;;-149.78;100.00;50291.50;4898499;29;20036;-73
2022/04/13 01:11:33;;;;;;;23.17;10.35;;;;;;;-149.78;100.00;50293.47;4897229;29;20413;-73
2022/04/13 01:13:59;;;;;;;25.08;9.38;;;;;;;-149.78;100.00;50299.34;4897042;29;20036;-73
2022/04/13 01:16:26;;;;;;;18.20;8.80;;;;;;;-149.78;100.00;50311.06;4881395;29;20051;-73
2022/04/13 01:18:54;;;;;;;19.25;9.77;;;;;;;-149.78;100.00;50291.50;4898202;29;20449;-73
2022/04/13 01:21:42;;;;;;;20.10;10.00;;;;;;;-149.78;100.00;50303.25;4898091;29;20060;-73
2022/04/13 01:24:07;;;;;;;20.63;10.68;;;;;;;-149.78;100.00;50291.50;4897847;29;20119;-73
2022/04/13 01:26:33;;;;;;;19.05;9.77;;;;;;;-149.78;100.00;50361.91;4896830;29;20140;-73
2022/04/13 01:28:59;;;;;;;23.13;9.82;;;;;;;-149.78;100.00;50326.72;4896673;29;20033;-73
2022/04/13 01:31:25;;;;;;;22.70;10.15;;;;;;;-149.78;100.00;50313.03;4896708;29;20485;-74
2022/04/13 01:33:51;;;;;;;21.17;9.45;;;;;;;-149.78;100.00;50314.97;4881335;29;20053;-73
2022/04/13 01:36:16;;;;;;;22.25;10.25;;;;;;;-149.78;100.00;50303.25;4897525;29;20599;-73
2022/04/13 01:38:42;;;;;;;22.42;10.98;;;;;;;-149.78;100.00;50289.56;4894392;29;20544;-73
2022/04/13 01:41:07;;;;;;;25.30;10.77;;;;;;;-149.78;100.00;50314.97;4896585;29;20059;-73
2022/04/13 01:43:33;;;;;;;25.35;11.10;;;;;;;-149.78;100.00;50314.97;4865761;29;20037;-73
2022/04/13 01:45:59;;;;;;;23.08;11.82;;;;;;;-149.78;100.00;50285.66;4896834;29;20099;-73
2022/04/13 01:48:24;;;;;;;22.20;10.82;;;;;;;-149.78;100.00;50322.81;4896751;29;20053;-73
2022/04/13 01:50:50;;;;;;;24.10;11.27;;;;;;;-149.78;100.00;50275.88;4897955;29;20119;-73
2022/04/13 01:53:16;;;;;;;26.27;11.55;;;;;;;-149.78;100.00;50311.06;4896590;29;20032;-73
2022/04/13 01:55:42;;;;;;;22.65;11.15;;;;;;;-149.78;100.00;50299.34;4897731;29;20068;-73
2022/04/13 01:58:08;;;;;;;24.60;11.18;;;;;;;-149.78;100.00;50334.53;4897782;29;20048;-73
2022/04/13 02:00:34;;;;;;;23.20;11.68;;;;;;;-149.78;100.00;50326.72;4897836;29;20497;-73
2022/04/13 02:03:00;;;;;;;20.83;10.80;;;;;;;-149.78;100.00;50314.97;4897489;29;20082;-73
2022/04/13 02:05:26;;;;;;;24.67;11.45;;;;;;;-149.78;100.00;50307.16;4896614;29;20495;-73
2022/04/13 02:07:51;;;;;;;26.58;12.43;;;;;;;-149.78;100.00;50311.06;4895148;29;20048;-73
2022/04/13 02:10:18;;;;;;;21.55;11.65;;;;;;;-149.78;100.00;50332.59;4896352;29;20037;-73
2022/04/13 02:12:44;;;;;;;22.92;11.45;;;;;;;-149.78;100.00;50299.34;4863577;29;20046;-73
2022/04/13 02:15:10;;;;;;;22.33;11.55;;;;;;;-149.78;100.00;50326.72;4913498;29;20626;-73
2022/04/13 02:17:38;;;;;;;25.63;11.85;;;;;;;-149.78;100.00;50326.72;4915527;29;20028;-73
2022/04/13 02:20:06;;;;;;;22.17;11.15;;;;;;;-149.78;100.00;50320.84;4915463;29;20040;-73
2022/04/13 02:22:31;;;;;;;25.85;11.02;;;;;;;-149.78;100.00;50326.72;4883446;29;20075;-73
2022/04/13 02:25:03;;;;;;;21.80;11.35;;;;;;;-149.78;100.00;50271.97;4914456;29;20040;-73
2022/04/13 02:27:28;;;;;;;28.80;12.30;;;;;;;-149.78;100.00;50326.72;4915062;29;20060;-73
2022/04/13 02:29:54;;;;;;;27.38;12.38;;;;;;;-149.78;100.00;50322.81;4914719;29;20487;-73
2022/04/13 02:32:20;;;;;;;25.35;11.73;;;;;;;-149.78;100.00;50322.81;4914882;29;20044;-73
2022/04/13 02:34:48;;;;;;;22.52;11.45;;;;;;;-149.78;100.00;50338.44;4914855;29;20095;-73
2022/04/13 02:37:18;;;;;;;24.85;11.48;;;;;;;-149.78;100.00;50303.25;4916129;29;20515;-72
2022/04/13 02:39:47;;;;;;;25.48;11.90;;;;;;;-149.78;100.00;50307.16;4898261;29;20051;-72
2022/04/13 02:42:14;;;;;;;23.48;12.02;;;;;;;-149.78;100.00;50322.81;4895666;29;20056;-72
2022/04/13 02:44:43;;;;;;;21.27;10.85;;;;;;;-149.78;100.00;50326.72;4900559;29;20048;-73
2022/04/13 02:47:10;;;;;;;23.85;10.35;;;;;;;-149.78;100.00;50299.34;4899489;29;20052;-73
2022/04/13 02:49:37;;;;;;;25.48;10.13;;;;;;;-149.78;100.00;50314.97;4900861;29;20032;-73
2022/04/13 02:52:03;;;;;;;23.92;11.05;;;;;;;-149.78;100.00;50340.41;4899345;29;20148;-72
2022/04/13 02:54:30;;;;;;;26.23;10.90;;;;;;;-149.78;100.00;50283.69;4899451;29;20043;-73
2022/04/13 02:56:55;;;;;;;23.63;11.35;;;;;;;-149.78;100.00;50314.97;4883754;29;20036;-72
2022/04/13 02:59:22;;;;;;;21.75;10.38;;;;;;;-149.78;100.00;50332.59;4883854;29;20060;-72
2022/04/13 03:01:48;;;;;;;24.67;10.43;;;;;;;-149.78;100.00;50314.97;4899242;29;20107;-74
2022/04/13 03:04:16;;;;;;;21.45;11.10;;;;;;;-149.78;100.00;50322.81;4900456;29;20028;-73
2022/04/13 03:06:42;;;;;;;26.55;11.13;;;;;;;-149.78;100.00;50291.50;4899257;29;20045;-73
2022/04/13 03:09:08;;;;;;;21.17;9.63;;;;;;;-149.78;100.00;50307.16;4899086;29;20068;-73
2022/04/13 03:11:34;;;;;;;27.05;10.73;;;;;;;-149.78;100.00;50322.81;4900489;29;20044;-72
2022/04/13 03:14:00;;;;;;;22.42;11.02;;;;;;;-149.78;100.00;50311.06;4899159;29;20096;-73
2022/04/13 03:16:25;;;;;;;20.73;10.55;;;;;;;-149.78;100.00;50313.03;4899232;29;20088;-73
2022/04/13 03:18:51;;;;;;;21.05;10.32;;;;;;;-149.78;100.00;50322.81;4900337;29;20037;-72
2022/04/13 03:21:17;;;;;;;27.00;10.38;;;;;;;-149.78;100.00;50318.91;4900214;29;20457;-73
2022/04/13 03:23:43;;;;;;;24.27;10.95;;;;;;;-149.78;100.00;50373.66;4898978;29;20537;-73
2022/04/13 03:26:09;;;;;;;24.10;10.52;;;;;;;-149.78;100.00;50326.72;4898426;29;20037;-73
2022/04/13 03:28:34;;;;;;;21.35;10.10;;;;;;;-149.78;100.00;50311.06;4882560;29;20159;-72
2022/04/13 03:31:00;;;;;;;21.30;9.80;;;;;;;-149.78;100.00;50324.75;4898890;29;20044;-73
2022/04/13 03:33:26;;;;;;;23.40;10.48;;;;;;;-149.78;100.00;50314.97;4900226;29;20037;-71
2022/04/13 03:35:51;;;;;;;23.30;9.90;;;;;;;-149.78;100.00;50322.81;4899787;29;20461;-71
2022/04/13 03:38:17;;;;;;;18.83;9.23;;;;;;;-149.78;100.00;50318.91;4898324;29;20638;-71
2022/04/13 03:40:43;;;;;;;18.13;9.50;;;;;;;-149.78;100.00;50344.31;4897450;29;20441;-71
2022/04/13 03:43:09;;;;;;;19.83;9.40;;;;;;;-149.78;100.00;50334.53;4897370;29;20040;-71
2022/04/13 03:45:36;;;;;;;20.65;9.90;;;;;;;-149.78;100.00;50330.63;4881863;29;20563;-71
2022/04/13 03:48:02;;;;;;;25.02;10.43;;;;;;;-149.78;100.00;50307.16;4907159;29;20036;-71
2022/04/13 03:50:29;;;;;;;22.42;10.32;;;;;;;-149.78;100.00;50326.72;4917505;29;20581;-71
2022/04/13 03:52:55;;;;;;;19.67;10.02;;;;;;;-149.78;100.00;50332.59;4900344;29;20036;-71
2022/04/13 03:55:22;;;;;;;21.67;9.48;;;;;;;-149.78;100.00;50338.44;4884991;29;20062;-71
2022/04/13 03:57:51;;;;;;;20.23;10.30;;;;;;;-149.78;100.00;50311.06;4917327;29;20047;-71
2022/04/13 04:00:19;;;;;;;20.00;9.93;;;;;;;-149.78;100.00;50307.16;4917562;29;20044;-71
2022/04/13 04:02:44;;;;;;;24.13;10.35;;;;;;;-149.78;100.00;50338.44;4902255;29;20039;-71
2022/04/13 04:05:11;;;;;;;24.85;10.13;;;;;;;-149.78;100.00;50369.75;4899565;29;20047;-71
2022/04/13 04:07:38;;;;;;;22.67;9.80;;;;;;;-149.78;100.00;50342.38;4898371;29;20047;-71
2022/04/13 04:10:04;;;;;;;22.55;10.10;;;;;;;-149.78;100.00;50303.25;4898254;29;20036;-71
2022/04/13 04:12:36;;;;;;;23.48;10.55;;;;;;;-149.78;100.00;50279.78;4898315;29;20117;-72
2022/04/13 04:15:01;;;;;;;19.53;10.17;;;;;;;-149.78;100.00;50322.81;4898341;29;20787;-71
2022/04/13 04:17:28;;;;;;;19.88;9.25;;;;;;;-149.78;100.00;50354.09;4899329;29;20279;-71
2022/04/13 04:19:54;;;;;;;21.17;9.30;;;;;;;-149.78;100.00;50358.00;4899278;29;20040;-71
2022/04/13 04:22:23;;;;;;;21.60;9.40;;;;;;;-149.78;100.00;50322.81;4899190;29;20064;-73
2022/04/13 04:24:48;;;;;;;19.70;9.80;;;;;;;-149.78;100.00;50334.53;4899181;29;20036;-71
2022/04/13 04:27:15;;;;;;;19.20;9.68;;;;;;;-149.78;100.00;50346.28;4897998;29;20041;-71
2022/04/13 04:29:40;;;;;;;25.27;9.80;;;;;;;-149.78;100.00;50346.28;4899104;29;20047;-71
2022/04/13 04:32:07;;;;;;;18.48;8.75;;;;;;;-149.78;100.00;50358.00;4899144;29;20088;-71
2022/04/13 04:34:34;;;;;;;19.85;9.55;;;;;;;-149.78;100.00;50346.28;4899066;29;20507;-71
2022/04/13 04:37:00;;;;;;;27.50;10.02;;;;;;;-149.78;100.00;50334.53;4898687;29;20055;-71
2022/04/13 04:39:25;;;;;;;20.52;9.32;;;;;;;-149.78;100.00;50342.38;4898982;29;20032;-71
2022/04/13 04:41:51;;;;;;;23.13;9.50;;;;;;;-149.78;100.00;50334.53;4898723;29;20471;-73
2022/04/13 04:44:18;;;;;;;22.05;9.90;;;;;;;-149.78;100.00;50344.31;4898846;29;20127;-72
2022/04/13 04:46:44;;;;;;;19.63;9.50;;;;;;;-149.78;100.00;50334.53;4882112;29;20112;-71
2022/04/13 04:49:10;;;;;;;18.05;9.07;;;;;;;-149.78;100.00;50350.19;4899159;29;20127;-71
2022/04/13 04:51:36;;;;;;;23.48;8.73;;;;;;;-149.78;100.00;50338.44;4900614;29;20036;-71
2022/04/13 04:54:03;;;;;;;20.55;9.45;;;;;;;-149.78;100.00;50338.44;4917673;29;20040;-71
2022/04/13 04:56:28;;;;;;;17.55;9.00;;;;;;;-149.78;100.00;50338.44;4917397;29;20040;-73
2022/04/13 04:58:57;;;;;;;18.33;9.02;;;;;;;-149.78;100.00;50381.47;4916206;29;20047;-71
2022/04/13 05:01:22;;;;;;;22.48;9.23;;;;;;;-149.78;100.00;50358.00;4917497;29;20063;-71
2022/04/13 05:03:49;;;;;;;21.90;9.70;;;;;;;-149.78;100.00;50354.09;4916011;29;20044;-71
2022/04/13 05:06:22;;;;;;;19.35;8.98;;;;;;;-149.78;100.00;50369.75;4915896;29;20036;-71
2022/04/13 05:08:49;;;;;;;22.92;10.00;;;;;;;-149.78;100.00;50330.63;4917218;29;20032;-71
2022/04/13 05:11:15;;;;;;;18.10;9.30;;;;;;;-149.78;100.00;50334.53;4916146;29;20404;-71
2022/04/13 05:13:41;;;;;;;21.27;9.73;;;;;;;-149.78;100.00;50369.75;4915931;29;20130;-71
2022/04/13 05:16:07;;;;;;;22.20;8.75;;;;;;;-149.78;100.00;50358.00;4917126;29;20032;-71
2022/04/13 05:18:33;;;;;;;19.25;9.20;;;;;;;-149.78;100.00;50334.53;4915920;29;20044;-71
2022/04/13 05:20:59;;;;;;;19.65;9.00;;;;;;;-149.78;100.00;50336.50;4917071;29;20040;-71
2022/04/13 05:23:25;;;;;;;19.42;9.27;;;;;;;-149.78;100.00;50346.28;4917123;29;20071;-71
2022/04/13 05:25:50;;;;;;;21.27;9.57;;;;;;;-149.78;100.00;50322.81;4916922;29;20068;-71
2022/04/13 05:28:16;;;;;;;18.13;8.43;;;;;;;-149.78;100.00;50311.06;4915735;29;20036;-71
2022/04/13 05:30:42;;;;;;;21.70;8.95;;;;;;;-149.78;100.00;50326.72;4916880;29;20459;-71
2022/04/13 05:33:08;;;;;;;20.58;9.02;;;;;;;-149.78;100.00;50383.44;4915750;29;20044;-71
2022/04/13 05:35:34;;;;;;;19.88;9.15;;;;;;;-149.78;100.00;50373.66;4894227;29;20036;-71
2022/04/13 05:38:02;;;;;;;14.30;8.00;;;;;;;-149.78;100.00;50324.75;4896857;29;20122;-71
2022/04/13 05:40:28;;;;;;;19.00;8.85;;;;;;;-149.78;100.00;50342.38;4898002;29;20036;-71
2022/04/13 05:42:53;;;;;;;19.52;10.05;;;;;;;-149.78;100.00;50346.28;4897546;29;20041;-71
2022/04/13 05:45:20;;;;;;;19.02;8.73;;;;;;;-149.78;100.00;50358.00;4881312;29;20052;-71
2022/04/13 05:47:46;;;;;;;18.23;8.75;;;;;;;-149.78;100.00;50299.34;4903278;29;20116;-71
2022/04/13 05:50:13;;;;;;;16.85;9.00;;;;;;;-149.78;100.00;50314.97;4915580;29;20036;-71
2022/04/13 05:52:40;;;;;;;21.17;9.75;;;;;;;-149.78;100.00;50330.63;4915524;29;20527;-71
2022/04/13 05:55:07;;;;;;;22.13;9.48;;;;;;;-149.78;100.00;50334.53;4916749;29;20540;-71
2022/04/13 05:57:33;;;;;;;19.52;8.43;;;;;;;-149.78;100.00;50330.63;4916576;29;20412;-71
2022/04/13 05:59:59;;;;;;;16.45;8.70;;;;;;;-149.78;100.00;50369.75;4915234;29;20063;-71
2022/04/13 06:02:24;;;;;;;20.33;9.27;;;;;;;-149.78;100.00;50330.63;4915310;29;20075;-71
2022/04/13 06:04:50;;;;;;;20.90;8.75;;;;;;;-149.78;100.00;50322.81;4915193;29;20044;-71
2022/04/13 06:07:16;;;;;;;20.13;7.82;;;;;;;-149.78;100.00;50338.44;4916503;29;20496;-71
2022/04/13 06:09:42;;;;;;;16.55;8.10;;;;;;;-149.78;100.00;50338.44;4915108;29;20036;-71
2022/04/13 06:12:08;;;;;;;16.98;8.55;;;;;;;-149.78;100.00;50307.16;4916124;29;20044;-71
2022/04/13 06:14:34;;;;;;;19.75;8.73;;;;;;;-149.78;100.00;50361.91;4915952;29;20117;-71
2022/04/13 06:16:59;;;;;;;18.67;7.78;;;;;;;-149.78;100.00;50326.72;4914120;29;20041;-72
2022/04/13 06:19:25;;;;;;;18.65;8.02;;;;;;;-149.78;100.00;50350.19;4915070;29;20139;-71
2022/04/13 06:21:52;;;;;;;17.65;7.95;;;;;;;-149.78;100.00;50359.97;4914911;29;20055;-71
2022/04/13 06:24:17;;;;;;;13.25;6.75;;;;;;;-149.78;100.00;50334.53;4916023;29;20044;-71
2022/04/13 06:26:43;;;;;;;15.02;7.30;;;;;;;-149.78;100.00;50313.03;4916108;29;20040;-71
2022/04/13 06:29:09;;;;;;;15.55;6.43;;;;;;;-149.78;100.00;50311.06;4915963;29;20531;-71
2022/04/13 06:31:35;;;;;;;15.52;6.50;;;;;;;-149.78;100.00;50328.69;4916089;29;20040;-71
2022/04/13 06:34:01;;;;;;;11.65;6.45;;;;;;;-149.78;100.00;50322.81;4916015;29;20088;-71
2022/04/13 06:36:26;;;;;;;10.90;6.05;;;;;;;-149.78;100.00;50338.44;4903193;29;20040;-71
2022/04/13 06:38:52;;;;;;;15.23;6.70;;;;;;;-149.78;100.00;50338.44;4895517;29;20153;-71
2022/04/13 06:41:18;;;;;;;11.95;6.22;;;;;;;-149.78;100.00;50311.06;4895595;29;20140;-71
2022/04/13 06:43:44;;;;;;;12.65;6.60;;;;;;;-149.78;100.00;50299.34;4896975;29;20041;-71
2022/04/13 06:46:09;;;;;;;11.68;6.00;;;;;;;-149.78;100.00;50303.25;4895898;29;20037;-71
2022/04/13 06:48:35;;;;;;;10.57;5.90;;;;;;;-149.78;100.00;50358.00;4909876;29;20052;-71
2022/04/13 06:51:03;;;;;;;11.10;5.55;;;;;;;-149.78;100.00;50361.91;4898915;29;20095;-71
2022/04/13 06:53:28;;;;;;;13.00;6.63;;;;;;;-149.78;100.00;50326.72;4915801;29;20499;-71
2022/04/13 06:55:54;;;;;;;11.25;6.25;;;;;;;-149.78;100.00;50295.44;4915694;29;20036;-71
2022/04/13 06:58:19;;;;;;;10.27;6.35;;;;;;;-149.78;100.00;50350.19;4914683;29;20040;-71
2022/04/13 07:00:46;;;;;;;12.00;6.45;;;;;;;-149.78;100.00;50291.50;4898950;29;20044;-71
2022/04/13 07:03:11;;;;;;;12.93;6.53;;;;;;;-149.78;100.00;50287.59;4915675;29;20092;-71
2022/04/13 07:05:37;;;;;;;12.77;6.00;;;;;;;-149.78;100.00;50299.34;4915479;29;20119;-71
2022/04/13 07:08:04;;;;;;;17.85;6.68;;;;;;;-149.78;100.00;50264.13;4914587;29;20041;-71
2022/04/13 07:10:32;;;;;;;9.77;6.22;;;;;;;-149.78;100.00;50248.50;4915891;29;20036;-71
2022/04/13 07:12:58;;;;;;;11.25;6.13;;;;;;;-149.78;100.00;50295.44;4915925;29;20140;-71
2022/04/13 07:15:24;;;;;;;9.38;5.45;;;;;;;-149.78;100.00;50277.81;4916038;29;20486;-71
2022/04/13 07:17:49;;;;;;;10.13;5.93;;;;;;;-149.78;100.00;50287.59;4915764;29;20087;-69
2022/04/13 07:20:16;;;;;;;10.68;5.88;;;;;;;-149.78;100.00;50268.03;4915900;29;20065;-70
2022/04/13 07:22:51;;;;;;;16.17;6.15;;;;;;;-149.78;100.00;50279.78;4915273;29;20047;-70
2022/04/13 07:25:18;;;;;;;14.00;6.30;;;;;;;-149.78;100.00;50287.59;4914807;29;20059;-70
2022/04/13 07:27:44;;;;;;;12.00;6.15;;;;;;;-149.78;100.00;50314.97;4913449;29;20051;-70
2022/04/13 07:30:11;;;;;;;13.55;6.18;;;;;;;-149.78;100.00;50307.16;4917725;29;20036;-70
2022/04/13 07:32:37;;;;;;;12.23;6.13;;;;;;;-149.78;100.00;50322.81;4917135;29;20028;-70
2022/04/13 07:35:03;;;;;;;11.30;6.40;;;;;;;-149.78;100.00;50291.50;4916572;29;20127;-70
2022/04/13 07:37:29;;;;;;;13.20;6.55;;;;;;;-149.78;100.00;50350.19;4899306;29;20039;-70
2022/04/13 07:39:55;;;;;;;14.05;7.20;;;;;;;-149.78;100.00;50279.78;4899719;29;20055;-70
2022/04/13 07:42:22;;;;;;;14.45;5.95;;;;;;;-149.78;100.00;50283.69;4898611;29;20044;-70
2022/04/13 07:44:48;;;;;;;11.98;6.47;;;;;;;-149.78;100.00;50326.72;4899983;29;20084;-70
2022/04/13 07:47:14;;;;;;;11.30;6.22;;;;;;;-149.78;100.00;50295.44;4902407;29;20116;-71
2022/04/13 07:49:41;;;;;;;11.65;6.32;;;;;;;-149.78;100.00;50271.97;4918772;29;20115;-70
2022/04/13 07:52:08;;;;;;;9.02;5.43;;;;;;;-149.78;100.00;50301.28;4918612;29;20048;-70
2022/04/13 07:54:34;;;;;;;10.68;5.35;;;;;;;-149.78;100.00;50266.09;4918612;29;20424;-70
2022/04/13 07:57:00;;;;;;;13.73;5.88;;;;;;;-149.78;100.00;50234.81;4917336;29;20127;-70
2022/04/13 07:59:26;;;;;;;9.38;4.82;;;;;;;-149.78;100.00;50172.22;4918561;29;20050;-70
2022/04/13 08:01:51;;;;;;;6.40;4.32;;;;;;;-149.78;100.00;50135.06;4918293;29;20071;-71
2022/04/13 08:04:18;;;;;;;5.68;3.90;;;;;;;-149.78;100.00;50115.50;4918236;29;20051;-71
2022/04/13 08:06:43;;;;;;;6.90;3.85;;;;;;;-149.78;100.00;50127.25;4900857;29;20052;-71
2022/04/13 08:09:09;;;;;;;5.25;3.88;;;;;;;-149.78;100.00;50123.34;4901541;29;20071;-71
2022/04/13 08:11:34;;;;;;;7.72;3.47;;;;;;;-149.78;100.00;50189.81;4901588;29;20040;-71
2022/04/13 08:14:00;;;;;;;5.45;4.07;;;;;;;-149.78;100.00;50164.41;4917154;29;20138;-70
2022/04/13 08:16:26;;;;;;;6.40;3.88;;;;;;;-149.78;100.00;50158.53;4918370;29;20036;-70
2022/04/13 08:18:51;;;;;;;5.55;3.88;;;;;;;-149.78;100.00;50164.41;4918064;29;20046;-71
2022/04/13 08:21:20;;;;;;;6.05;3.50;;;;;;;-149.78;100.00;50213.28;4917039;29;20073;-70
2022/04/13 08:23:45;;;;;;;6.88;3.85;;;;;;;-149.78;100.00;50209.38;4917002;29;20060;-70
2022/04/13 08:26:11;;;;;;;5.07;3.33;;;;;;;-149.78;100.00;50162.44;4901323;29;20046;-70
2022/04/13 08:28:37;;;;;;;5.13;3.28;;;;;;;-149.78;100.00;50170.25;4918186;29;20123;-70
2022/04/13 08:31:04;;;;;;;5.03;2.97;;;;;;;-149.78;100.00;50111.59;4917977;29;20536;-71
2022/04/13 08:33:31;;;;;;;3.65;2.40;;;;;;;-149.78;100.00;50146.81;4916943;29;20215;-70
2022/04/13 08:35:57;;;;;;;5.72;2.80;;;;;;;-149.78;100.00;50168.31;4907878;29;20039;-71
2022/04/13 08:38:23;;;;;;;6.07;2.80;;;;;;;-149.78;100.00;50166.34;4899067;29;20036;-71
2022/04/13 08:40:56;;;;;;;4.50;2.85;;;;;;;-149.78;100.00;50185.91;4896796;29;20032;-70
2022/04/13 08:43:37;;;;;;;4.45;2.60;;;;;;;-149.78;100.00;50183.97;4899030;29;20039;-70
2022/04/13 08:46:08;;;;;;;7.07;2.75;;;;;;;-149.78;100.00;50185.91;4897579;29;20117;-71
2022/04/13 08:48:37;;;;;;;6.82;3.00;;;;;;;-149.78;100.00;50217.19;4911612;29;20449;-71
2022/04/13 08:51:05;;;;;;;6.10;3.40;;;;;;;-149.78;100.00;50256.31;4916555;29;20456;-71
2022/04/13 08:53:32;;;;;;;5.32;3.00;;;;;;;-149.78;100.00;50240.66;4916666;29;20404;-72
2022/04/13 08:55:59;;;;;;;4.32;2.95;;;;;;;-149.78;100.00;50232.84;4917495;29;20047;-72
2022/04/13 08:58:44;;;;;;;5.72;3.00;;;;;;;-149.78;100.00;50275.88;4917715;29;20469;-72
2022/04/13 09:01:47;;;;;;;4.30;2.80;;;;;;;-149.78;100.00;50236.75;4916384;29;20036;-71
2022/04/13 09:04:36;;;;;;;3.67;2.63;;;;;;;-149.78;100.00;50217.19;4901935;29;20131;-71
2022/04/13 09:07:23;;;;;;;4.22;2.47;;;;;;;-149.78;100.00;50209.38;4917471;29;20047;-71
2022/04/13 09:10:11;;;;;;;4.15;2.30;;;;;;;-149.78;100.00;50201.56;4917510;29;20110;-72
2022/04/13 09:12:38;;;;;;;2.88;2.03;;;;;;;-149.78;100.00;50221.13;4917299;29;20035;-72
2022/04/13 09:15:23;;;;;;;3.95;2.25;;;;;;;-149.78;100.00;50234.81;4917216;29;20119;-72
2022/04/13 09:18:11;;;;;;;4.00;2.60;;;;;;;-149.78;100.00;50228.94;4916406;29;20066;-72
2022/04/13 09:20:44;;;;;;;5.75;2.80;;;;;;;-149.78;100.00;50182.00;4917101;29;20036;-72
2022/04/13 09:23:29;;;;;;;6.63;3.33;;;;;;;-149.78;100.00;50209.38;4915726;29;20054;-72
2022/04/13 09:26:17;;;;;;;4.53;3.17;;;;;;;-149.78;100.00;50217.19;4916042;29;20074;-72
2022/04/13 09:28:43;;;;;;;4.18;3.15;;;;;;;-149.78;100.00;50189.81;4915789;29;20048;-72
2022/04/13 09:31:09;;;;;;;5.47;3.28;;;;;;;-149.78;100.00;50197.66;4914504;29;20698;-73
2022/04/13 09:33:34;;;;;;;4.00;2.72;;;;;;;-149.78;100.00;50187.88;4915818;29;20032;-73
2022/04/13 09:36:00;;;;;;;4.45;3.63;;;;;;;-149.78;100.00;50182.00;4904899;29;20536;-73
2022/04/13 09:38:27;;;;;;;3.78;3.20;;;;;;;-149.78;100.00;50166.34;4896671;29;20040;-73
2022/04/13 09:40:52;;;;;;;4.72;3.17;;;;;;;-149.78;100.00;50185.91;4897687;29;20137;-74
2022/04/13 09:43:24;;;;;;;4.20;3.17;;;;;;;-149.78;100.00;50182.00;4896808;29;20068;-74
2022/04/13 09:45:51;;;;;;;5.88;3.50;;;;;;;-149.78;100.00;50203.50;4896588;29;20060;-72
2022/04/13 09:48:19;;;;;;;5.07;4.07;;;;;;;-149.78;100.00;50209.38;4908270;29;20536;-73
2022/04/13 09:50:47;;;;;;;7.65;5.43;;;;;;;-149.78;100.00;50215.25;4904934;29;20476;-72
2022/04/13 09:53:15;;;;;;;10.70;5.95;;;;;;;-149.78;100.00;50213.28;4897756;29;20040;-72
2022/04/13 09:55:54;;;;;;;7.80;5.50;;;;;;;-149.78;100.00;50236.75;4897583;29;20037;-72
2022/04/13 09:58:22;;;;;;;6.82;5.22;;;;;;;-149.78;100.00;50234.81;4897669;29;20029;-73
2022/04/13 10:00:50;;;;;;;7.25;5.63;;;;;;;-149.78;100.00;50178.09;4897592;29;20100;-72
2022/04/13 10:03:17;;;;;;;8.18;6.03;;;;;;;-149.78;100.00;50142.88;4897664;29;20036;-73
2022/04/13 10:05:49;;;;;;;6.13;4.55;;;;;;;-149.78;100.00;50097.91;4897714;29;20032;-73
2022/04/13 10:08:15;;;;;;;5.35;4.68;;;;;;;-149.78;100.00;50045.09;4897560;29;20041;-74
2022/04/13 10:10:46;;;;;;;4.57;4.05;;;;;;;-149.78;77.88;50006.00;4897499;29;20091;-73
2022/04/13 10:13:30;;;;;;;4.72;4.22;;;;;;;-149.78;65.35;49984.50;4897390;29;20040;-73
2022/04/13 10:15:57;;;;;;;6.07;4.47;;;;;;;-149.78;63.85;50023.59;4897369;29;20033;-73
2022/04/13 10:18:23;;;;;;;6.28;5.63;;;;;;;-149.78;63.42;50002.09;4897557;29;20136;-73
2022/04/13 10:20:49;;;;;;;5.50;4.95;;;;;;;-149.78;59.84;49970.78;4897293;29;20041;-72
2022/04/13 10:23:16;;;;;;;6.93;5.80;;;;;;;-149.78;56.31;50015.78;4880495;29;20041;-72
2022/04/13 10:25:43;;;;;;;6.35;4.50;;;;;;;-149.78;53.39;50013.81;4897408;29;20385;-72
2022/04/13 10:28:12;;;;;;;4.53;4.13;;;;;;;-149.78;54.47;50031.41;4896045;29;20067;-71
2022/04/13 10:30:42;;;;;;;4.90;4.35;;;;;;;-149.78;59.76;50037.28;4897247;29;20120;-73
2022/04/13 10:33:12;;;;;;;6.82;4.60;;;;;;;-149.78;60.77;50084.22;4897294;29;20036;-72
2022/04/13 10:35:41;;;;;;;4.57;4.05;;;;;;;-149.78;59.50;50064.66;4895978;29;20416;-72
2022/04/13 10:38:08;;;;;;;4.10;3.70;;;;;;;-149.78;57.83;50092.03;4897136;29;20104;-71
2022/04/13 10:40:35;;;;;;;3.65;3.15;;;;;;;-149.78;55.63;50049.03;4897052;29;20047;-71
2022/04/13 10:43:04;;;;;;;4.40;3.58;;;;;;;-149.78;55.61;50041.19;4897158;29;20029;-70
2022/04/13 10:45:30;;;;;;;3.60;3.15;;;;;;;-149.78;54.74;50045.09;4897228;29;20058;-70
2022/04/13 10:47:59;;;;;;;3.35;2.90;;;;;;;-149.78;55.87;50064.66;4897037;29;20040;-70
2022/04/13 10:50:31;;;;;;;3.30;2.67;;;;;;;-149.78;52.32;49982.53;4897121;29;20043;-70
2022/04/13 10:53:28;;;;;;;3.90;3.30;;;;;;;-149.78;50.79;50037.28;4897106;29;20068;-70
2022/04/13 10:55:58;;;;;;;4.47;4.05;;;;;;;-149.78;54.78;50021.63;4897167;29;20032;-70
2022/04/13 10:58:37;;;;;;;7.78;4.75;;;;;;;-149.78;53.43;50060.75;4896035;29;20068;-70
2022/04/13 11:01:05;;;;;;;4.60;4.18;;;;;;;-149.78;56.43;50027.50;4897099;29;20028;-70
2022/04/13 11:03:37;;;;;;;4.65;4.25;;;;;;;-149.78;58.57;50107.69;4895918;29;20097;-71